Time;durP1;ratioP1;P1;durP2;ratioP2;P2;SDS_P1;SDS_P2;PMS_P1;PMS_P2;Temp;Humidity;BMP_temperature;BMP_pressure;BME280_temperature;BME280_humidity;BME280_pressure;Samples;Min_cycle;Max_cycle;Signal;HPM_P1;HPM_P2
2023/02/24 00:02:04;;;;;;;4.35;1.65;;;21.50;34.30;;;;;;5058850;28;20077;-51
2023/02/24 00:04:40;;;;;;;3.60;1.38;;;21.50;34.30;;;;;;5060349;28;20076;-53
2023/02/24 00:07:07;;;;;;;5.78;1.75;;;21.50;34.20;;;;;;5055015;28;20029;-49
2023/02/24 00:09:33;;;;;;;4.65;1.70;;;21.50;34.20;;;;;;5058401;28;20081;-50
2023/02/24 00:12:07;;;;;;;4.75;1.85;;;21.50;34.20;;;;;;5063379;28;20021;-47
2023/02/24 00:14:34;;;;;;;;;;;21.50;34.20;;;;;;5063587;28;20459;-46
2023/02/24 00:17:01;;;;;;;4.93;1.73;;;21.50;34.20;;;;;;5062061;28;20331;-55
2023/02/24 00:19:31;;;;;;;3.33;1.40;;;21.40;34.10;;;;;;5062427;28;20091;-50
2023/02/24 00:21:58;;;;;;;3.20;1.52;;;21.40;34.10;;;;;;5061020;28;20509;-50
2023/02/24 00:24:25;;;;;;;4.28;1.50;;;21.40;34.10;;;;;;5060581;28;20317;-54
2023/02/24 00:26:58;;;;;;;3.80;1.90;;;21.40;34.10;;;;;;5063583;28;20478;-53
2023/02/24 00:29:24;;;;;;;4.80;2.20;;;21.40;34.10;;;;;;5046217;28;20441;-51
2023/02/24 00:32:00;;;;;;;3.70;1.67;;;21.40;34.00;;;;;;5045547;28;20043;-58
2023/02/24 00:34:27;;;;;;;4.40;1.88;;;21.40;34.00;;;;;;5045306;28;20031;-53
2023/02/24 00:36:56;;;;;;;3.42;1.42;;;21.40;34.10;;;;;;5066039;28;20057;-51
2023/02/24 00:39:32;;;;;;;4.88;1.73;;;21.40;34.20;;;;;;5059981;28;20032;-50
2023/02/24 00:42:04;;;;;;;4.80;1.80;;;21.40;34.20;;;;;;5046245;28;20150;-49
2023/02/24 00:44:43;;;;;;;3.42;1.50;;;21.30;34.00;;;;;;5058163;28;20061;-51
2023/02/24 00:47:10;;;;;;;3.88;1.85;;;21.40;34.10;;;;;;5063240;28;20142;-50
2023/02/24 00:49:42;;;;;;;4.40;1.50;;;21.30;34.00;;;;;;5058584;28;20453;-53
2023/02/24 00:52:18;;;;;;;4.32;1.50;;;21.30;33.90;;;;;;5049316;28;20039;-53
2023/02/24 00:54:46;;;;;;;4.00;2.05;;;21.30;33.90;;;;;;5057583;28;20027;-52
2023/02/24 00:57:13;;;;;;;4.45;1.83;;;21.30;33.90;;;;;;5043754;28;20021;-55
2023/02/24 00:59:41;;;;;;;5.13;1.50;;;21.30;33.90;;;;;;5069198;28;20036;-51
2023/02/24 01:02:07;;;;;;;4.55;2.00;;;21.30;33.90;;;;;;5046628;28;20029;-54
2023/02/24 01:04:34;;;;;;;5.82;1.98;;;21.30;34.60;;;;;;5061998;28;20040;-52
2023/02/24 01:07:00;;;;;;;6.20;2.25;;;21.30;34.00;;;;;;5069809;28;20502;-52
2023/02/24 01:09:29;;;;;;;3.83;1.65;;;21.30;33.90;;;;;;5044223;28;20115;-53
2023/02/24 01:14:44;;;;;;;4.18;1.50;;;21.20;33.90;;;;;;5047671;28;20060;-53
2023/02/24 01:17:11;;;;;;;5.80;1.77;;;21.30;34.00;;;;;;5048197;28;20055;-54
2023/02/24 01:19:37;;;;;;;4.55;1.52;;;21.30;34.00;;;;;;5057314;28;20432;-50
2023/02/24 01:22:05;;;;;;;3.25;1.40;;;21.20;34.00;;;;;;5065146;28;20033;-53
2023/02/24 01:24:35;;;;;;;5.00;1.40;;;21.20;34.00;;;;;;5063714;28;20136;-53
2023/02/24 01:27:02;;;;;;;4.78;1.70;;;21.20;34.00;;;;;;5064193;28;20028;-53
2023/02/24 01:29:28;;;;;;;4.60;1.90;;;21.20;34.00;;;;;;5063628;28;20083;-51
2023/02/24 01:32:02;;;;;;;6.50;2.28;;;21.20;34.60;;;;;;5048827;28;20028;-52
2023/02/24 01:34:28;;;;;;;5.00;1.85;;;21.20;34.00;;;;;;5039755;28;20471;-52
2023/02/24 01:36:56;;;;;;;4.43;1.98;;;21.20;33.90;;;;;;5057804;28;20040;-53
2023/02/24 01:39:22;;;;;;;3.53;1.50;;;21.20;34.00;;;;;;5061061;28;20029;-54
2023/02/24 01:41:51;;;;;;;5.00;1.80;;;21.20;33.90;;;;;;5056110;28;20032;-53
2023/02/24 01:44:20;;;;;;;4.57;1.73;;;21.20;33.90;;;;;;5043002;28;20033;-54
2023/02/24 01:46:49;;;;;;;4.25;1.50;;;21.20;34.00;;;;;;5064972;28;20049;-54
2023/02/24 01:49:28;;;;;;;4.78;1.60;;;21.20;34.00;;;;;;5050214;28;20033;-54
2023/02/24 01:51:56;;;;;;;5.15;1.90;;;21.20;34.00;;;;;;5042794;28;20108;-54
2023/02/24 01:54:25;;;;;;;4.95;1.65;;;21.10;33.90;;;;;;5037635;28;20033;-51
2023/02/24 01:56:52;;;;;;;4.32;2.10;;;21.10;33.90;;;;;;5064832;28;20056;-53
2023/02/24 01:59:21;;;;;;;5.25;1.85;;;21.10;33.90;;;;;;5040203;28;20368;-54
2023/02/24 02:01:52;;;;;;;5.10;1.73;;;21.10;33.90;;;;;;5067774;28;20017;-50
2023/02/24 02:04:33;;;;;;;4.18;1.60;;;21.10;33.90;;;;;;5062546;28;20036;-51
2023/02/24 02:07:00;;;;;;;5.25;1.90;;;21.10;33.90;;;;;;5044722;28;20367;-50
2023/02/24 02:09:31;;;;;;;3.22;1.60;;;21.10;33.90;;;;;;5066629;28;20028;-50
2023/02/24 02:11:57;;;;;;;3.33;1.73;;;21.10;34.60;;;;;;5041735;28;20041;-52
2023/02/24 02:14:27;;;;;;;5.18;1.98;;;21.10;34.00;;;;;;5045419;28;20028;-51
2023/02/24 02:17:10;;;;;;;3.97;1.90;;;21.10;33.90;;;;;;5042155;28;20068;-55
2023/02/24 02:20:06;;;;;;;4.88;2.13;;;21.00;33.90;;;;;;5063162;28;20128;-50
2023/02/24 02:22:35;;;;;;;4.10;1.77;;;21.00;34.00;;;;;;5064186;28;20038;-52
2023/02/24 02:25:16;;;;;;;4.07;1.83;;;21.00;34.00;;;;;;5064825;28;20024;-50
2023/02/24 02:28:11;;;;;;;4.82;1.83;;;21.00;34.00;;;;;;5064069;28;20032;-52
2023/02/24 02:30:55;;;;;;;3.33;1.50;;;21.00;34.00;;;;;;5049227;28;20472;-52
2023/02/24 02:33:49;;;;;;;4.35;1.85;;;21.00;34.00;;;;;;5059564;28;20036;-52
2023/02/24 02:36:51;;;;;;;3.25;1.38;;;21.00;34.00;;;;;;5061958;28;20355;-53
2023/02/24 02:39:23;;;;;;;3.72;1.50;;;21.00;34.00;;;;;;5044129;28;20055;-53
2023/02/24 02:42:05;;;;;;;4.38;1.77;;;21.00;34.00;;;;;;5061979;28;20029;-54
2023/02/24 02:44:57;;;;;;;4.47;1.60;;;21.00;34.00;;;;;;5044426;28;20129;-53
2023/02/24 02:47:29;;;;;;;3.15;1.60;;;20.90;33.90;;;;;;5038554;28;20032;-54
2023/02/24 02:50:19;;;;;;;3.40;1.48;;;20.90;33.90;;;;;;5061516;28;20099;-52
2023/02/24 02:52:55;;;;;;;3.67;1.80;;;20.90;34.00;;;;;;5044547;28;20071;-51
2023/02/24 02:55:32;;;;;;;3.55;1.63;;;20.90;33.90;;;;;;5040424;28;20040;-53
2023/02/24 02:58:01;;;;;;;3.03;1.70;;;20.90;33.90;;;;;;5048569;28;20566;-52
2023/02/24 03:00:34;;;;;;;4.43;1.60;;;20.90;33.90;;;;;;5045933;28;20044;-51
2023/02/24 03:03:07;;;;;;;3.72;1.60;;;20.90;33.90;;;;;;5061919;28;20020;-53
2023/02/24 03:05:45;;;;;;;3.20;1.40;;;20.90;33.90;;;;;;5039033;28;20036;-51
2023/02/24 03:08:17;;;;;;;3.58;1.60;;;20.90;33.90;;;;;;5041922;28;20359;-51
2023/02/24 03:10:49;;;;;;;3.75;1.48;;;20.90;33.90;;;;;;5040939;28;20028;-49
2023/02/24 03:13:21;;;;;;;3.10;1.40;;;20.90;33.90;;;;;;5038583;28;20021;-52
2023/02/24 03:15:50;;;;;;;3.08;1.48;;;20.90;33.90;;;;;;5043240;28;20028;-48
2023/02/24 03:18:29;;;;;;;4.00;1.70;;;20.90;33.90;;;;;;5044242;28;20143;-51
2023/02/24 03:21:28;;;;;;;4.03;1.70;;;20.90;33.90;;;;;;5062627;28;20033;-51
2023/02/24 03:23:54;;;;;;;3.78;1.75;;;20.90;33.80;;;;;;5017574;28;20651;-51
2023/02/24 03:26:40;;;;;;;2.60;1.33;;;20.80;33.70;;;;;;5045871;28;20036;-53
2023/02/24 03:29:25;;;;;;;3.75;1.50;;;20.80;33.70;;;;;;5039827;28;20028;-54
2023/02/24 03:32:07;;;;;;;3.00;1.52;;;20.80;33.80;;;;;;5049960;28;20021;-51
2023/02/24 03:34:47;;;;;;;3.35;1.50;;;20.80;33.80;;;;;;5041156;28;20028;-52
2023/02/24 03:37:14;;;;;;;3.50;1.42;;;20.80;33.80;;;;;;5063334;28;20039;-51
2023/02/24 03:39:40;;;;;;;3.08;1.33;;;20.80;33.80;;;;;;5040359;28;20304;-52
2023/02/24 03:42:18;;;;;;;2.85;1.70;;;20.80;33.80;;;;;;5043413;28;20039;-51
2023/02/24 03:44:47;;;;;;;3.95;1.50;;;20.80;33.80;;;;;;5039879;28;20028;-47
2023/02/24 03:47:14;;;;;;;3.30;1.38;;;20.80;33.80;;;;;;5041696;28;20410;-52
2023/02/24 03:49:42;;;;;;;3.10;1.48;;;20.80;33.80;;;;;;5040548;28;20352;-51
2023/02/24 03:52:09;;;;;;;3.03;1.40;;;20.80;33.70;;;;;;5045364;28;20040;-50
2023/02/24 03:54:48;;;;;;;3.15;1.23;;;20.80;33.70;;;;;;5046072;28;20455;-53
2023/02/24 03:57:53;;;;;;;4.88;1.88;;;20.80;33.80;;;;;;5045298;28;20032;-51
2023/02/24 04:00:45;;;;;;;3.13;1.55;;;20.80;33.80;;;;;;5039696;28;20126;-53
2023/02/24 04:03:47;;;;;;;5.32;1.77;;;20.80;33.70;;;;;;5048471;28;20043;-53
2023/02/24 04:06:41;;;;;;;2.33;1.20;;;20.80;33.70;;;;;;5037291;28;20033;-48
2023/02/24 04:09:32;;;;;;;3.15;1.48;;;20.70;33.70;;;;;;5062600;28;20459;-50
2023/02/24 04:12:20;;;;;;;4.65;1.50;;;20.70;33.70;;;;;;5038327;28;20025;-50
2023/02/24 04:15:07;;;;;;;4.05;1.50;;;20.70;33.80;;;;;;5050004;28;20056;-52
2023/02/24 04:17:37;;;;;;;3.65;1.42;;;20.70;33.80;;;;;;5037428;28;20045;-53
2023/02/24 04:20:14;;;;;;;3.80;1.48;;;20.70;33.70;;;;;;5040685;28;20333;-49
2023/02/24 04:22:48;;;;;;;4.68;1.58;;;20.70;33.70;;;;;;5042696;28;20024;-52
2023/02/24 04:25:25;;;;;;;3.45;1.42;;;20.70;33.70;;;;;;5062303;28;20043;-53
2023/02/24 04:27:58;;;;;;;3.03;1.30;;;20.70;33.70;;;;;;5026673;28;20032;-53
2023/02/24 04:30:34;;;;;;;2.67;1.20;;;20.70;33.70;;;;;;5069258;28;20062;-53
2023/02/24 04:33:01;;;;;;;4.22;1.42;;;20.60;33.60;;;;;;5052278;28;20363;-51
2023/02/24 04:35:27;;;;;;;3.72;1.52;;;20.60;33.60;;;;;;5041048;28;20024;-53
2023/02/24 04:37:55;;;;;;;3.13;1.55;;;20.60;33.60;;;;;;5054408;28;20073;-50
2023/02/24 04:40:21;;;;;;;4.65;1.90;;;20.60;33.60;;;;;;5044162;28;20040;-53
2023/02/24 04:42:52;;;;;;;4.28;1.60;;;20.60;33.60;;;;;;5063140;28;20024;-53
2023/02/24 04:45:27;;;;;;;4.22;1.60;;;20.60;33.60;;;;;;5062182;28;20470;-52
2023/02/24 04:47:55;;;;;;;4.95;1.27;;;20.60;33.70;;;;;;5064176;28;20398;-54
2023/02/24 04:50:24;;;;;;;3.00;1.30;;;20.60;33.60;;;;;;5064114;28;20032;-53
2023/02/24 04:53:16;;;;;;;5.40;1.60;;;20.60;33.60;;;;;;5060111;28;20028;-53
2023/02/24 04:55:47;;;;;;;2.20;1.05;;;20.60;33.60;;;;;;5060247;28;20041;-54
2023/02/24 04:58:19;;;;;;;5.03;1.83;;;20.60;33.60;;;;;;5062110;28;20068;-52
2023/02/24 05:00:47;;;;;;;3.58;1.50;;;20.60;33.60;;;;;;5063702;28;20039;-52
2023/02/24 05:03:15;;;;;;;4.07;1.50;;;20.50;33.50;;;;;;5068217;28;20024;-52
2023/02/24 05:05:58;;;;;;;3.67;1.40;;;20.60;33.60;;;;;;5040846;28;20539;-50
2023/02/24 05:08:26;;;;;;;3.83;1.50;;;20.50;33.50;;;;;;5063911;28;20429;-52
2023/02/24 05:10:56;;;;;;;3.53;1.40;;;20.50;33.50;;;;;;5060687;28;20039;-53
2023/02/24 05:13:25;;;;;;;5.32;1.40;;;20.50;33.50;;;;;;5072126;28;20452;-52
2023/02/24 05:15:53;;;;;;;2.58;1.35;;;20.60;33.60;;;;;;5063839;28;20025;-54
2023/02/24 05:18:19;;;;;;;4.57;1.45;;;20.50;33.50;;;;;;5063054;28;20044;-54
2023/02/24 05:23:35;;;;;;;3.72;1.40;;;20.50;33.50;;;;;;5060849;28;20495;-50
2023/02/24 05:26:07;;;;;;;4.78;1.55;;;20.50;33.40;;;;;;5067957;28;20038;-53
2023/02/24 05:28:33;;;;;;;3.92;1.60;;;20.50;33.40;;;;;;5068035;28;20340;-51
2023/02/24 05:31:06;;;;;;;5.57;1.58;;;20.50;33.40;;;;;;5068231;28;20033;-51
2023/02/24 05:33:36;;;;;;;4.67;1.40;;;20.50;33.30;;;;;;5067261;28;20024;-53
2023/02/24 05:36:07;;;;;;;4.72;1.40;;;20.50;33.30;;;;;;5063633;28;20056;-54
2023/02/24 05:38:36;;;;;;;3.83;1.38;;;20.50;33.30;;;;;;5065402;28;20036;-54
2023/02/24 05:41:06;;;;;;;3.55;1.73;;;20.50;33.30;;;;;;5066807;28;20050;-52
2023/02/24 05:43:34;;;;;;;4.88;1.40;;;20.50;33.30;;;;;;5067383;28;20452;-52
2023/02/24 05:46:03;;;;;;;2.63;1.20;;;20.50;33.30;;;;;;5064161;28;20024;-51
2023/02/24 05:48:33;;;;;;;3.50;1.20;;;20.50;33.30;;;;;;5064706;28;20383;-52
2023/02/24 05:51:06;;;;;;;3.13;1.50;;;20.40;33.20;;;;;;5064304;28;20034;-51
2023/02/24 05:53:33;;;;;;;3.05;1.33;;;20.40;33.20;;;;;;5065334;28;20024;-52
2023/02/24 05:56:06;;;;;;;3.25;1.30;;;20.40;33.20;;;;;;5062723;28;20029;-50
2023/02/24 05:58:32;;;;;;;3.80;1.30;;;20.50;33.30;;;;;;5070887;28;20051;-51
2023/02/24 06:01:05;;;;;;;3.05;1.40;;;20.40;33.10;;;;;;5059462;28;20024;-52
2023/02/24 06:03:34;;;;;;;3.88;1.35;;;20.40;33.20;;;;;;5065455;28;20029;-55
2023/02/24 06:06:08;;;;;;;4.00;1.33;;;20.40;33.20;;;;;;5063545;28;20032;-51
2023/02/24 06:08:41;;;;;;;2.97;1.20;;;20.40;33.20;;;;;;5062260;28;20380;-53
2023/02/24 06:11:10;;;;;;;3.75;1.25;;;20.40;33.20;;;;;;5052300;28;20025;-54
2023/02/24 06:13:37;;;;;;;4.13;1.33;;;20.40;33.20;;;;;;5063164;28;20032;-54
2023/02/24 06:16:11;;;;;;;3.05;1.38;;;20.40;33.20;;;;;;5066334;28;20112;-53
2023/02/24 06:18:39;;;;;;;4.43;1.48;;;20.40;33.20;;;;;;5061555;28;20185;-50
2023/02/24 06:21:06;;;;;;;4.95;1.50;;;20.40;33.30;;;;;;5060763;28;20108;-53
2023/02/24 06:23:32;;;;;;;4.72;1.48;;;20.40;33.20;;;;;;5061593;28;20367;-48
2023/02/24 06:26:02;;;;;;;2.47;1.30;;;20.40;33.20;;;;;;5067095;28;20025;-53
2023/02/24 06:28:29;;;;;;;3.15;1.30;;;20.40;33.20;;;;;;5064746;28;20097;-53
2023/02/24 06:30:55;;;;;;;3.85;1.45;;;20.40;33.20;;;;;;5060268;28;20029;-50
2023/02/24 06:33:25;;;;;;;4.68;1.40;;;20.40;33.20;;;;;;5062971;28;20024;-49
2023/02/24 06:35:52;;;;;;;4.28;1.45;;;20.40;33.20;;;;;;5066144;28;20085;-50
2023/02/24 06:38:18;;;;;;;3.40;1.23;;;20.40;33.20;;;;;;5064307;28;20518;-52
2023/02/24 06:40:46;;;;;;;4.43;1.75;;;20.40;33.20;;;;;;5058764;28;20028;-51
2023/02/24 06:43:12;;;;;;;3.33;1.60;;;20.40;33.20;;;;;;5062956;28;20020;-51
2023/02/24 06:45:38;;;;;;;2.97;1.48;;;20.40;33.20;;;;;;5061583;28;20029;-52
2023/02/24 06:48:04;;;;;;;3.70;1.67;;;20.30;33.20;;;;;;5061506;28;20372;-52
2023/02/24 06:50:31;;;;;;;4.15;1.80;;;20.30;33.20;;;;;;5062317;28;20466;-53
2023/02/24 06:52:59;;;;;;;2.65;1.17;;;20.40;33.30;;;;;;5062273;28;20029;-50
2023/02/24 06:55:27;;;;;;;3.38;1.50;;;20.30;33.20;;;;;;5056123;28;20426;-53
2023/02/24 06:57:57;;;;;;;3.88;1.30;;;20.30;33.20;;;;;;5058815;28;20048;-51
2023/02/24 07:00:37;;;;;;;4.32;1.63;;;20.30;33.20;;;;;;5056071;28;20471;-50
2023/02/24 07:03:14;;;;;;;2.80;1.40;;;20.30;33.20;;;;;;5061579;28;20032;-50
2023/02/24 07:05:53;;;;;;;3.70;1.20;;;20.30;33.30;;;;;;5061350;28;20028;-53
2023/02/24 07:08:26;;;;;;;3.67;1.25;;;20.30;33.30;;;;;;5068908;28;20051;-53
2023/02/24 07:10:54;;;;;;;3.20;1.30;;;20.30;33.20;;;;;;5033683;28;20464;-53
2023/02/24 07:13:28;;;;;;;3.88;1.42;;;20.30;33.20;;;;;;5062700;28;20396;-54
2023/02/24 07:15:54;;;;;;;3.15;1.17;;;20.30;33.30;;;;;;5062964;28;20486;-49
2023/02/24 07:18:25;;;;;;;4.05;1.33;;;20.30;33.50;;;;;;5062802;28;20036;-52
2023/02/24 07:20:51;;;;;;;3.45;1.25;;;20.30;33.70;;;;;;5067957;28;20072;-52
2023/02/24 07:23:17;;;;;;;3.17;1.20;;;20.30;33.80;;;;;;5063007;28;20045;-52
2023/02/24 07:25:45;;;;;;;3.38;1.52;;;20.30;33.90;;;;;;5063427;28;20104;-52
2023/02/24 07:28:17;;;;;;;3.65;1.20;;;20.30;34.00;;;;;;5055308;28;20032;-52
2023/02/24 07:30:44;;;;;;;4.07;1.42;;;20.30;34.10;;;;;;5050342;28;20091;-52
2023/02/24 07:33:10;;;;;;;4.50;1.55;;;20.30;34.20;;;;;;5057503;28;20448;-53
2023/02/24 07:35:39;;;;;;;5.28;1.73;;;20.30;34.30;;;;;;5055432;28;20041;-54
2023/02/24 07:38:04;;;;;;;7.68;1.80;;;20.40;34.40;;;;;;5051421;28;20029;-54
2023/02/24 07:40:32;;;;;;;4.57;1.73;;;20.40;34.40;;;;;;5052128;28;20017;-55
2023/02/24 07:43:00;;;;;;;4.57;1.30;;;20.40;34.50;;;;;;5054338;28;20029;-50
2023/02/24 07:45:26;;;;;;;4.93;1.30;;;20.40;35.20;;;;;;5059863;28;20021;-50
2023/02/24 07:47:52;;;;;;;5.88;1.77;;;20.40;34.70;;;;;;5055737;28;20032;-52
2023/02/24 07:50:18;;;;;;;5.40;1.70;;;20.50;35.50;;;;;;5059824;28;20021;-54
2023/02/24 07:52:50;;;;;;;4.88;1.58;;;20.50;35.00;;;;;;5048113;28;20416;-54
2023/02/24 07:55:18;;;;;;;6.75;1.83;;;20.60;35.10;;;;;;5052614;28;20021;-48
2023/02/24 07:57:47;;;;;;;8.15;2.33;;;20.60;35.00;;;;;;5080711;28;20074;-53
2023/02/24 08:00:18;;;;;;;6.57;2.22;;;20.60;35.00;;;;;;5059148;28;20028;-55
2023/02/24 08:02:49;;;;;;;5.80;1.92;;;20.70;34.90;;;;;;5083627;28;20108;-53
2023/02/24 08:05:20;;;;;;;3.30;1.50;;;20.70;34.80;;;;;;5052577;28;20126;-54
2023/02/24 08:07:48;;;;;;;7.80;1.50;;;20.80;34.70;;;;;;5059384;28;20471;-53
2023/02/24 08:10:25;;;;;;;5.38;1.80;;;20.80;34.60;;;;;;5051444;28;20036;-50
2023/02/24 08:12:54;;;;;;;5.25;1.52;;;20.80;34.40;;;;;;5049503;28;20045;-54
2023/02/24 08:15:25;;;;;;;4.03;1.38;;;20.90;34.40;;;;;;5055181;28;20377;-53
2023/02/24 08:17:59;;;;;;;5.72;1.42;;;20.90;34.20;;;;;;5055197;28;20661;-52
2023/02/24 08:20:28;;;;;;;5.05;1.40;;;21.00;34.20;;;;;;5068000;28;20028;-55
2023/02/24 08:22:55;;;;;;;5.53;1.63;;;21.00;34.30;;;;;;5055994;28;20077;-52
2023/02/24 08:25:34;;;;;;;3.25;1.30;;;21.00;34.40;;;;;;5037383;28;20033;-52
2023/02/24 08:28:06;;;;;;;5.57;1.70;;;21.00;34.50;;;;;;5035271;28;20448;-52
2023/02/24 08:30:37;;;;;;;5.88;1.73;;;21.10;34.40;;;;;;5040935;28;20034;-54
2023/02/24 08:33:05;;;;;;;6.72;2.22;;;21.10;34.30;;;;;;5044935;28;20344;-55
2023/02/24 08:35:36;;;;;;;4.57;1.90;;;21.10;34.30;;;;;;5045583;28;20021;-51
2023/02/24 08:38:08;;;;;;;4.32;1.33;;;21.10;34.20;;;;;;5038582;28;20029;-53
2023/02/24 08:40:49;;;;;;;7.40;2.03;;;21.20;34.20;;;;;;5044239;28;20033;-54
2023/02/24 08:46:02;;;;;;;5.85;1.55;;;21.20;34.70;;;;;;5042033;28;20029;-51
2023/02/24 08:48:49;;;;;;;4.93;1.58;;;21.20;34.00;;;;;;5044319;28;20069;-55
2023/02/24 08:51:21;;;;;;;5.60;1.50;;;21.20;34.00;;;;;;5036807;28;20025;-51
2023/02/24 08:53:53;;;;;;;3.90;1.55;;;21.20;34.00;;;;;;5043926;28;20021;-54
2023/02/24 08:56:33;;;;;;;6.28;2.00;;;21.20;34.40;;;;;;5045619;28;20040;-53
2023/02/24 08:59:04;;;;;;;5.75;1.88;;;21.20;34.60;;;;;;5040895;28;20150;-52
2023/02/24 09:01:36;;;;;;;4.45;1.55;;;21.30;34.90;;;;;;5042517;28;20037;-58
2023/02/24 09:04:07;;;;;;;6.57;1.50;;;21.30;34.90;;;;;;5063037;28;20037;-51
2023/02/24 09:06:39;;;;;;;3.75;1.60;;;21.30;34.70;;;;;;5054944;28;20504;-50
2023/02/24 09:09:17;;;;;;;5.40;1.50;;;21.30;34.60;;;;;;5054427;28;20036;-51
2023/02/24 09:11:55;;;;;;;7.15;1.75;;;21.30;34.50;;;;;;5054348;28;20037;-52
2023/02/24 09:14:24;;;;;;;6.93;1.42;;;21.30;34.30;;;;;;5055328;28;20032;-48
2023/02/24 09:17:02;;;;;;;4.05;1.48;;;21.30;34.20;;;;;;5054535;28;20040;-53
2023/02/24 09:19:47;;;;;;;4.97;1.40;;;21.30;34.10;;;;;;5054256;28;20033;-49
2023/02/24 09:22:31;;;;;;;4.88;1.30;;;21.30;34.00;;;;;;5053659;28;20033;-54
2023/02/24 09:25:20;;;;;;;2.67;1.10;;;21.30;34.00;;;;;;5052817;28;20029;-52
2023/02/24 09:28:09;;;;;;;5.88;1.83;;;21.30;33.90;;;;;;5053134;28;20033;-51
2023/02/24 09:30:49;;;;;;;6.60;1.85;;;21.30;33.90;;;;;;5050242;28;20040;-53
2023/02/24 09:33:24;;;;;;;5.63;1.50;;;21.30;33.80;;;;;;5053033;28;20048;-50
2023/02/24 09:35:49;;;;;;;;;;;21.30;33.80;;;;;;5053886;28;20490;-50
2023/02/24 09:38:18;;;;;;;2.60;1.38;;;21.30;33.70;;;;;;5054217;28;20065;-53
2023/02/24 09:40:50;;;;;;;3.85;1.30;;;21.30;33.70;;;;;;5054285;28;20036;-53
2023/02/24 09:43:23;;;;;;;3.47;1.20;;;21.30;33.70;;;;;;5052790;28;20415;-54
2023/02/24 09:46:13;;;;;;;4.93;1.73;;;21.40;33.80;;;;;;5054252;28;20368;-52
2023/02/24 09:48:53;;;;;;;3.92;1.35;;;21.40;33.70;;;;;;5052690;28;20021;-53
2023/02/24 09:51:20;;;;;;;3.47;1.33;;;21.40;33.70;;;;;;5052423;28;20139;-53
2023/02/24 09:53:52;;;;;;;4.97;1.55;;;21.40;33.70;;;;;;5053998;28;20082;-53
2023/02/24 09:56:41;;;;;;;3.63;1.50;;;21.40;33.60;;;;;;5051836;28;20535;-52
2023/02/24 09:59:35;;;;;;;4.50;1.52;;;21.40;33.60;;;;;;5052444;28;20033;-54
2023/02/24 10:02:13;;;;;;;5.22;1.30;;;21.50;33.60;;;;;;5051379;28;20119;-53
2023/02/24 10:04:47;;;;;;;3.83;1.38;;;21.50;33.80;;;;;;5052247;28;20047;-54
2023/02/24 10:07:37;;;;;;;2.78;0.95;;;21.50;33.90;;;;;;5049964;28;20104;-56
2023/02/24 10:10:26;;;;;;;5.65;1.20;;;21.50;33.90;;;;;;5051657;28;20043;-51
2023/02/24 10:13:16;;;;;;;4.95;1.48;;;21.50;34.00;;;;;;5048853;28;20111;-53
2023/02/24 10:18:29;;;;;;;4.03;1.35;;;21.50;34.30;;;;;;5051590;28;20036;-53
2023/02/24 10:21:29;;;;;;;3.80;1.50;;;21.60;34.40;;;;;;5052080;28;20115;-51
2023/02/24 10:24:18;;;;;;;4.88;1.15;;;21.60;34.50;;;;;;5053417;28;20102;-55
2023/02/24 10:26:49;;;;;;;4.03;1.50;;;21.60;34.40;;;;;;5051824;28;20025;-56
2023/02/24 10:29:49;;;;;;;4.03;1.20;;;21.60;34.30;;;;;;5052546;28;20029;-53
2023/02/24 10:32:32;;;;;;;4.70;1.55;;;21.60;34.20;;;;;;5053165;28;20345;-57
2023/02/24 10:35:00;;;;;;;4.35;1.55;;;21.60;34.10;;;;;;5052076;28;20472;-54
2023/02/24 10:37:27;;;;;;;3.22;1.10;;;21.60;34.10;;;;;;5051226;28;20043;-56
2023/02/24 10:40:09;;;;;;;2.85;1.30;;;21.60;34.00;;;;;;5053370;28;20044;-51
2023/02/24 10:42:43;;;;;;;4.20;1.40;;;21.70;34.60;;;;;;5051261;28;20086;-52
2023/02/24 10:45:24;;;;;;;3.33;1.33;;;21.60;33.90;;;;;;5053980;28;20040;-54
2023/02/24 10:47:56;;;;;;;2.50;1.35;;;21.70;33.90;;;;;;5052063;28;20094;-53
2023/02/24 10:50:26;;;;;;;3.08;1.58;;;21.70;33.90;;;;;;5052550;28;20021;-56
2023/02/24 10:58:26;;;;;;;4.63;1.83;;;21.70;33.80;;;;;;5052986;28;20048;-55
2023/02/24 11:03:40;;;;;;;4.20;2.03;;;21.70;33.80;;;;;;5050168;28;20467;-53
2023/02/24 11:06:40;;;;;;;;;;;21.80;33.80;;;;;;5046228;28;20024;-54
2023/02/24 11:09:28;;;;;;;4.15;1.85;;;21.70;33.80;;;;;;5053119;28;19909;-54
2023/02/24 11:17:49;;;;;;;5.32;2.25;;;21.80;33.90;;;;;;5050957;28;20100;-54
2023/02/24 11:20:27;;;;;;;3.78;2.10;;;21.80;33.90;;;;;;5051555;28;20075;-55
2023/02/24 11:22:54;;;;;;;4.13;2.47;;;21.80;33.90;;;;;;5050673;28;20021;-53
2023/02/24 11:25:39;;;;;;;4.63;2.38;;;21.80;33.90;;;;;;5052720;28;20337;-52
2023/02/24 11:28:47;;;;;;;6.13;2.65;;;21.80;33.90;;;;;;5052073;28;20108;-52
2023/02/24 11:31:39;;;;;;;3.42;2.25;;;21.80;33.90;;;;;;5039732;28;20428;-52
2023/02/24 11:34:36;;;;;;;4.13;2.45;;;21.80;33.90;;;;;;5050550;28;20021;-53
2023/02/24 11:37:25;;;;;;;5.50;2.97;;;21.80;33.90;;;;;;5050244;28;20092;-56
2023/02/24 11:40:00;;;;;;;6.50;2.80;;;21.80;34.00;;;;;;5047343;28;20059;-56
2023/02/24 11:42:36;;;;;;;5.72;3.22;;;21.80;34.00;;;;;;5050193;28;20388;-56
2023/02/24 11:45:30;;;;;;;5.60;3.08;;;21.90;34.00;;;;;;5052507;28;20033;-55
2023/02/24 11:48:03;;;;;;;6.45;3.25;;;21.90;34.00;;;;;;5051404;28;20056;-54
2023/02/24 11:50:32;;;;;;;4.80;3.25;;;21.90;34.00;;;;;;5052230;28;20495;-55
2023/02/24 11:53:03;;;;;;;5.60;3.20;;;21.90;34.00;;;;;;5052112;28;20116;-56
2023/02/24 11:55:43;;;;;;;5.10;3.40;;;21.90;34.00;;;;;;5052495;28;20441;-55
2023/02/24 11:58:36;;;;;;;5.50;3.40;;;21.90;34.00;;;;;;5050757;28;20475;-55
2023/02/24 12:01:14;;;;;;;6.82;3.72;;;21.90;34.00;;;;;;5063950;28;20036;-53
2023/02/24 12:04:11;;;;;;;6.03;4.65;;;21.90;34.10;;;;;;5058475;28;20025;-55
2023/02/24 12:06:55;;;;;;;7.63;5.28;;;21.90;34.10;;;;;;5055832;28;20044;-54
2023/02/24 12:09:25;;;;;;;;;;;22.00;34.20;;;;;;5054942;28;20060;-51
2023/02/24 12:12:03;;;;;;;9.95;6.63;;;21.90;34.20;;;;;;5056718;28;19921;-54
2023/02/24 12:14:43;;;;;;;9.00;6.32;;;22.00;34.30;;;;;;5056626;28;20073;-54
2023/02/24 12:17:32;;;;;;;11.27;7.03;;;22.00;34.30;;;;;;5057484;28;20047;-54
2023/02/24 12:20:29;;;;;;;9.52;6.93;;;22.00;34.30;;;;;;5068154;28;20036;-55
2023/02/24 12:22:58;;;;;;;9.85;7.60;;;21.90;34.30;;;;;;5051983;28;20041;-54
2023/02/24 12:25:28;;;;;;;11.98;8.00;;;22.00;34.40;;;;;;5058507;28;20486;-53
2023/02/24 12:28:20;;;;;;;11.05;8.13;;;22.00;34.50;;;;;;5056677;28;20044;-56
2023/02/24 12:31:01;;;;;;;11.60;8.23;;;22.00;34.50;;;;;;5054244;28;20037;-56
2023/02/24 12:33:54;;;;;;;13.50;8.57;;;22.00;34.50;;;;;;5053567;28;20041;-53
2023/02/24 12:36:43;;;;;;;11.65;8.68;;;22.00;34.60;;;;;;5054150;28;20029;-53
2023/02/24 12:39:31;;;;;;;12.23;8.52;;;22.00;34.60;;;;;;5052197;28;20360;-56
2023/02/24 12:42:06;;;;;;;10.98;8.68;;;22.00;34.70;;;;;;5054537;28;20028;-52
2023/02/24 12:45:10;;;;;;;11.32;8.70;;;21.90;34.70;;;;;;5060157;28;20025;-51
2023/02/24 12:47:57;;;;;;;11.68;9.10;;;21.90;34.70;;;;;;5014736;28;20048;-52
2023/02/24 12:50:41;;;;;;;13.40;9.15;;;21.90;34.80;;;;;;5052849;28;20061;-52
2023/02/24 12:53:40;;;;;;;12.77;9.68;;;21.90;34.90;;;;;;5058419;28;20133;-53
2023/02/24 12:56:10;;;;;;;12.20;9.88;;;22.00;35.00;;;;;;5061767;28;20036;-54
2023/02/24 12:58:40;;;;;;;11.70;9.88;;;21.90;35.00;;;;;;5055041;28;20033;-55
2023/02/24 13:01:12;;;;;;;11.05;8.63;;;21.90;35.00;;;;;;5054773;28;20067;-53
2023/02/24 13:04:03;;;;;;;10.90;8.88;;;21.90;35.10;;;;;;5051037;28;20029;-54
2023/02/24 13:06:30;;;;;;;11.73;9.85;;;21.90;35.10;;;;;;5048760;28;20030;-56
2023/02/24 13:09:10;;;;;;;12.75;9.73;;;21.90;35.20;;;;;;5055133;28;20445;-55
2023/02/24 13:11:43;;;;;;;13.23;10.50;;;21.90;35.20;;;;;;5050102;28;20046;-54
2023/02/24 13:14:21;;;;;;;13.10;10.57;;;21.90;35.30;;;;;;5056462;28;20036;-56
2023/02/24 13:16:47;;;;;;;13.55;11.30;;;21.90;35.30;;;;;;5069075;28;20417;-52
2023/02/24 13:19:29;;;;;;;15.70;12.52;;;22.00;35.50;;;;;;5063982;28;20036;-53
2023/02/24 13:22:07;;;;;;;17.83;13.60;;;21.90;35.60;;;;;;5051059;28;20020;-55
2023/02/24 13:24:35;;;;;;;15.32;12.15;;;22.00;35.70;;;;;;5054653;28;20028;-54
2023/02/24 13:27:20;;;;;;;16.08;12.70;;;22.00;35.80;;;;;;5048470;28;20032;-51
2023/02/24 13:30:06;;;;;;;16.08;12.52;;;22.00;35.90;;;;;;5048475;28;20036;-53
2023/02/24 13:32:40;;;;;;;16.25;12.45;;;22.00;35.90;;;;;;5045576;28;20103;-54
2023/02/24 13:35:15;;;;;;;15.80;11.43;;;22.00;35.90;;;;;;5046736;28;20017;-52
2023/02/24 13:37:47;;;;;;;15.45;11.35;;;22.00;36.50;;;;;;5051050;28;20040;-54
2023/02/24 13:40:22;;;;;;;15.68;11.15;;;22.00;35.90;;;;;;5047407;28;20064;-56
2023/02/24 13:42:57;;;;;;;16.38;12.60;;;22.00;36.00;;;;;;5049481;28;20024;-55
2023/02/24 13:45:35;;;;;;;14.73;11.20;;;22.00;36.00;;;;;;5079720;28;20029;-52
2023/02/24 13:48:28;;;;;;;15.60;11.55;;;21.90;36.00;;;;;;5054885;28;20033;-53
2023/02/24 13:51:12;;;;;;;14.55;10.82;;;21.90;36.00;;;;;;5054247;28;20025;-57